createdAt,value
2023-01-04T00:02:59.341Z,6.90
2023-01-04T00:06:23.316Z,6.90
2023-01-04T00:09:49.326Z,7.00
2023-01-04T00:13:13.001Z,7.00
2023-01-04T00:16:37.788Z,7.00
2023-01-04T00:20:03.628Z,7.00
2023-01-04T00:23:29.669Z,7.10
2023-01-04T00:26:53.180Z,7.10
2023-01-04T00:30:17.349Z,7.10
2023-01-04T00:33:40.922Z,7.10
2023-01-04T00:37:06.639Z,7.10
2023-01-04T00:40:30.333Z,7.20
2023-01-04T00:43:56.558Z,7.20
2023-01-04T00:47:20.165Z,7.20
2023-01-04T00:50:45.336Z,7.20
2023-01-04T00:54:14.528Z,7.20
2023-01-04T00:57:38.183Z,7.20
2023-01-04T01:01:06.521Z,7.20
2023-01-04T01:04:31.405Z,7.20
2023-01-04T01:07:55.494Z,7.20
2023-01-04T01:11:22.113Z,7.30
2023-01-04T01:14:45.775Z,7.30
2023-01-04T01:18:09.375Z,7.30
2023-01-04T01:21:33.427Z,7.30
2023-01-04T01:25:00.145Z,7.30
2023-01-04T01:28:25.743Z,7.30
2023-01-04T01:31:51.758Z,7.40
2023-01-04T01:35:16.427Z,7.40
2023-01-04T01:38:40.811Z,7.50
2023-01-04T01:42:10.492Z,7.50
2023-01-04T01:45:36.206Z,7.60
2023-01-04T01:49:04.182Z,7.70
2023-01-04T01:52:36.015Z,7.70
2023-01-04T01:56:02.069Z,7.70
2023-01-04T01:59:28.302Z,7.80
2023-01-04T02:03:03.932Z,7.80
2023-01-04T02:06:32.572Z,7.80
2023-01-04T02:09:57.167Z,7.90
2023-01-04T02:13:45.997Z,8.00
2023-01-04T02:17:16.137Z,8.00
2023-01-04T02:20:49.217Z,7.90
2023-01-04T02:24:33.764Z,7.90
2023-01-04T02:28:00.479Z,7.90
2023-01-04T02:31:41.327Z,7.80
2023-01-04T02:35:15.902Z,7.80
2023-01-04T02:38:55.662Z,7.70
2023-01-04T02:42:46.708Z,7.60
2023-01-04T02:46:17.134Z,7.60
2023-01-04T02:50:04.699Z,7.50
2023-01-04T02:53:36.824Z,7.50
2023-01-04T02:57:25.549Z,7.40
2023-01-04T03:01:25.830Z,7.40
2023-01-04T03:05:18.716Z,7.40
2023-01-04T03:08:50.463Z,7.40
2023-01-04T03:12:32.917Z,7.30
2023-01-04T03:16:02.545Z,7.40
2023-01-04T03:19:42.721Z,7.30
2023-01-04T03:23:25.735Z,7.30
2023-01-04T03:27:22.496Z,7.40
2023-01-04T03:31:10.831Z,7.40
2023-01-04T03:34:52.810Z,7.40
2023-01-04T03:38:45.764Z,7.40
2023-01-04T03:42:35.772Z,7.40
2023-01-04T03:46:23.802Z,7.40
2023-01-04T03:49:51.263Z,7.50
2023-01-04T03:53:17.359Z,7.50
2023-01-04T03:56:44.641Z,7.50
2023-01-04T04:00:14.826Z,7.60
2023-01-04T04:03:58.004Z,7.60
2023-01-04T04:07:39.911Z,7.70
2023-01-04T04:11:19.803Z,7.80
2023-01-04T04:14:45.806Z,7.80
2023-01-04T04:18:09.975Z,7.80
2023-01-04T04:21:33.676Z,7.80
2023-01-04T04:24:59.719Z,7.90
2023-01-04T04:28:27.313Z,7.90
2023-01-04T04:31:54.024Z,8.00
2023-01-04T04:35:18.898Z,8.00
2023-01-04T04:38:42.651Z,8.00
2023-01-04T04:42:06.609Z,8.10
2023-01-04T04:45:31.526Z,8.10
2023-01-04T04:48:55.770Z,8.10
2023-01-04T04:52:19.585Z,8.20
2023-01-04T04:55:43.496Z,8.20
2023-01-04T04:59:08.091Z,8.30
2023-01-04T05:02:41.922Z,8.40
2023-01-04T05:06:05.987Z,8.40
2023-01-04T05:09:29.671Z,8.40
2023-01-04T05:13:02.317Z,8.40
2023-01-04T05:16:26.060Z,8.50
2023-01-04T05:19:52.035Z,8.40
2023-01-04T05:23:16.870Z,8.50
2023-01-04T05:26:41.100Z,8.50
2023-01-04T05:30:24.897Z,8.50
2023-01-04T05:33:48.522Z,8.50
2023-01-04T05:37:14.263Z,8.50
2023-01-04T05:40:37.838Z,8.50
2023-01-04T05:44:01.652Z,8.60
2023-01-04T05:47:26.614Z,8.60
2023-01-04T05:50:52.268Z,8.60
2023-01-04T05:54:21.544Z,8.70
2023-01-04T05:57:46.690Z,8.70
2023-01-04T06:01:11.039Z,8.70
2023-01-04T06:04:34.771Z,8.80
2023-01-04T06:07:58.656Z,8.80
2023-01-04T06:11:27.772Z,8.80
2023-01-04T06:14:53.684Z,8.90
2023-01-04T06:18:17.241Z,8.90
2023-01-04T06:21:40.781Z,9.00
2023-01-04T06:25:05.076Z,9.00
2023-01-04T06:28:34.213Z,9.00
2023-01-04T06:32:01.763Z,9.10
2023-01-04T06:35:25.693Z,9.10
2023-01-04T06:38:50.041Z,9.10
2023-01-04T06:42:27.943Z,9.10
2023-01-04T06:45:53.492Z,9.20
2023-01-04T06:49:17.758Z,9.20
2023-01-04T06:52:42.953Z,9.20
2023-01-04T06:56:08.121Z,9.20
2023-01-04T06:59:32.821Z,9.20
2023-01-04T07:03:14.435Z,9.20
2023-01-04T07:06:39.815Z,9.30
2023-01-04T07:10:12.138Z,9.30
2023-01-04T07:13:51.313Z,9.30
2023-01-04T07:17:15.877Z,9.40
2023-01-04T07:20:43.840Z,9.40
2023-01-04T07:24:07.781Z,9.40
2023-01-04T07:27:31.790Z,9.40
2023-01-04T07:30:55.860Z,9.40
2023-01-04T07:34:21.501Z,9.50
2023-01-04T07:37:50.877Z,9.50
2023-01-04T07:41:17.866Z,9.50
2023-01-04T07:44:41.980Z,9.50
2023-01-04T07:48:06.279Z,9.50
2023-01-04T07:51:31.012Z,9.50
2023-01-04T07:54:56.221Z,9.50
2023-01-04T07:58:20.827Z,9.50
2023-01-04T08:01:46.190Z,9.50
2023-01-04T08:05:11.084Z,9.50
2023-01-04T08:08:34.873Z,9.50
2023-01-04T08:12:00.212Z,9.50
2023-01-04T08:15:23.802Z,9.50
2023-01-04T08:18:53.659Z,9.50
2023-01-04T08:22:25.996Z,9.40
2023-01-04T08:25:51.654Z,9.40
2023-01-04T08:29:16.645Z,9.50
2023-01-04T08:32:40.744Z,9.40
2023-01-04T08:36:12.252Z,9.50
2023-01-04T08:39:36.351Z,9.50
2023-01-04T08:42:59.958Z,9.50
2023-01-04T08:46:24.884Z,9.50
2023-01-04T08:49:48.556Z,9.60
2023-01-04T08:53:12.853Z,9.60
2023-01-04T08:56:36.421Z,9.60
2023-01-04T08:59:59.965Z,9.70
2023-01-04T09:03:25.021Z,9.70
2023-01-04T09:06:48.656Z,9.70
2023-01-04T09:10:12.584Z,9.70
2023-01-04T09:13:37.322Z,9.80
2023-01-04T09:17:01.062Z,9.80
2023-01-04T09:20:26.110Z,9.90
2023-01-04T09:23:49.960Z,9.80
2023-01-04T09:27:13.609Z,9.90
2023-01-04T09:30:37.175Z,9.90
2023-01-04T09:34:17.668Z,9.90
2023-01-04T09:37:43.416Z,9.90
2023-01-04T09:41:16.437Z,10.00
2023-01-04T09:48:32.531Z,10.00
2023-01-04T09:52:01.632Z,10.10
2023-01-04T09:55:37.059Z,10.10
2023-01-04T09:59:08.434Z,10.10
2023-01-04T10:02:41.420Z,9.90
2023-01-04T10:06:06.783Z,10.00
2023-01-04T10:09:30.965Z,10.00
2023-01-04T10:13:10.415Z,9.90
2023-01-04T10:24:56.047Z,9.90
2023-01-04T10:28:32.528Z,9.90
2023-01-04T10:32:01.523Z,9.80
2023-01-04T10:35:27.642Z,9.80
2023-01-04T10:38:58.107Z,9.90
2023-01-04T10:42:31.687Z,9.90
2023-01-04T10:46:05.228Z,9.90
2023-01-04T10:49:38.125Z,9.90
2023-01-04T10:53:05.635Z,9.90
2023-01-04T10:56:33.441Z,9.90
2023-01-04T11:00:03.597Z,10.00
2023-01-04T11:03:34.937Z,9.90
2023-01-04T11:07:03.687Z,10.00
2023-01-04T11:10:31.549Z,10.00
2023-01-04T11:13:55.289Z,10.00
2023-01-04T11:17:20.967Z,10.00
2023-01-04T11:20:46.649Z,10.00
2023-01-04T11:24:31.619Z,10.00
2023-01-04T11:28:00.012Z,10.00
2023-01-04T11:31:27.306Z,10.00
2023-01-04T11:34:53.191Z,10.00
2023-01-04T11:38:20.366Z,10.00
2023-01-04T11:42:02.618Z,10.10
2023-01-04T11:45:28.703Z,10.10
2023-01-04T11:48:53.086Z,10.10
2023-01-04T11:52:30.555Z,10.10
2023-01-04T11:56:13.633Z,10.00
2023-01-04T11:59:37.727Z,10.10
2023-01-04T12:03:14.440Z,10.20
2023-01-04T12:06:41.862Z,10.20
2023-01-04T12:10:21.477Z,10.20
2023-01-04T12:13:46.651Z,10.30
2023-01-04T12:17:15.118Z,10.30
2023-01-04T12:20:38.814Z,10.30
2023-01-04T12:24:07.744Z,10.30
2023-01-04T12:27:31.660Z,10.30
2023-01-04T12:30:57.159Z,10.30
2023-01-04T12:34:42.852Z,10.30
2023-01-04T12:38:09.682Z,10.40
2023-01-04T12:42:10.766Z,10.40
2023-01-04T12:45:34.333Z,10.40
2023-01-04T12:49:04.478Z,10.50
2023-01-04T12:53:10.080Z,10.50
2023-01-04T12:57:04.453Z,10.50
2023-01-04T13:01:20.471Z,10.60
2023-01-04T13:04:45.761Z,10.60
2023-01-04T13:08:11.855Z,10.60
2023-01-04T13:12:09.230Z,10.70
2023-01-04T13:15:52.819Z,10.70
2023-01-04T13:19:22.584Z,10.70
2023-01-04T13:22:54.758Z,10.70
2023-01-04T13:26:35.585Z,10.80
2023-01-04T13:29:59.335Z,10.80
2023-01-04T13:33:27.148Z,10.90
2023-01-04T13:36:56.603Z,10.90
2023-01-04T13:40:26.794Z,10.90
2023-01-04T13:44:03.519Z,10.90
2023-01-04T13:47:28.218Z,11.00
2023-01-04T13:51:02.639Z,11.00
2023-01-04T13:54:30.178Z,11.00
2023-01-04T13:58:00.089Z,11.00
2023-01-04T14:01:26.236Z,11.10
2023-01-04T14:04:51.584Z,11.10
2023-01-04T14:08:20.932Z,11.10
2023-01-04T14:12:09.662Z,11.10
2023-01-04T14:15:34.773Z,11.10
2023-01-04T14:18:59.066Z,11.10
2023-01-04T14:22:42.612Z,11.10
2023-01-04T14:26:06.186Z,11.10
2023-01-04T14:29:32.592Z,11.20
2023-01-04T14:33:01.200Z,11.20
2023-01-04T14:36:28.104Z,11.20
2023-01-04T14:39:51.746Z,11.30
2023-01-04T14:43:35.149Z,11.30
2023-01-04T14:47:00.724Z,11.40
2023-01-04T14:50:25.761Z,11.40
2023-01-04T14:53:49.519Z,11.40
2023-01-04T14:57:13.208Z,11.50
2023-01-04T15:00:36.908Z,11.50
2023-01-04T15:04:00.981Z,11.50
2023-01-04T15:07:35.527Z,11.60
2023-01-04T15:11:00.338Z,11.60
2023-01-04T15:14:24.214Z,11.60
2023-01-04T15:17:48.327Z,11.60
2023-01-04T15:21:12.742Z,11.60
2023-01-04T15:24:37.719Z,11.60
2023-01-04T15:28:01.533Z,11.70
2023-01-04T15:31:31.227Z,11.70
2023-01-04T15:34:58.835Z,11.70
2023-01-04T15:38:22.419Z,11.70
2023-01-04T15:42:04.787Z,11.70
2023-01-04T15:45:29.771Z,11.70
2023-01-04T15:48:53.400Z,11.70
2023-01-04T15:52:16.981Z,11.70
2023-01-04T15:55:40.559Z,11.70
2023-01-04T15:59:05.834Z,11.70
2023-01-04T16:02:29.563Z,11.90
2023-01-04T16:05:55.127Z,11.80
2023-01-04T16:09:21.345Z,11.80
2023-01-04T16:12:48.663Z,11.80
2023-01-04T16:16:19.100Z,11.80
2023-01-04T16:19:42.685Z,11.80
2023-01-04T16:23:06.243Z,11.80
2023-01-04T16:26:29.803Z,11.80
2023-01-04T16:29:53.480Z,11.80
2023-01-04T16:33:18.473Z,11.90
2023-01-04T16:36:42.083Z,11.90
2023-01-04T16:40:08.244Z,11.90
2023-01-04T16:43:32.680Z,11.90
2023-01-04T16:46:56.388Z,11.90
2023-01-04T16:50:21.420Z,11.90
2023-01-04T16:53:45.456Z,11.90
2023-01-04T16:57:09.020Z,11.90
2023-01-04T17:00:32.817Z,11.90
2023-01-04T17:03:58.061Z,11.90
2023-01-04T17:07:23.320Z,11.90
2023-01-04T17:10:46.887Z,11.90
2023-01-04T17:14:13.844Z,11.90
2023-01-04T17:17:37.406Z,11.90
2023-01-04T17:21:32.185Z,11.90
2023-01-04T17:24:47.673Z,11.90
2023-01-04T17:28:11.281Z,11.90
2023-01-04T17:31:36.726Z,11.90
2023-01-04T17:35:00.340Z,11.90
2023-01-04T17:38:24.007Z,11.90
2023-01-04T17:41:48.929Z,11.90
2023-01-04T17:45:12.638Z,12.00
2023-01-04T17:48:37.011Z,11.90
2023-01-04T17:52:01.136Z,11.90
2023-01-04T17:55:27.435Z,11.90
2023-01-04T17:58:52.940Z,11.90
2023-01-04T18:02:17.040Z,11.90
2023-01-04T18:05:51.632Z,12.00
2023-01-04T18:09:20.219Z,11.90
2023-01-04T18:12:46.032Z,11.90
2023-01-04T18:16:24.502Z,11.90
2023-01-04T18:19:48.764Z,11.90
2023-01-04T18:23:23.896Z,12.00
2023-01-04T18:30:32.886Z,12.00
2023-01-04T18:33:59.621Z,12.00
2023-01-04T18:37:23.197Z,12.00
2023-01-04T18:40:47.061Z,12.00
2023-01-04T18:44:32.278Z,12.00
2023-01-04T18:47:54.893Z,12.00
2023-01-04T18:51:20.641Z,12.00
2023-01-04T18:54:44.783Z,12.00
2023-01-04T18:58:08.478Z,12.00
2023-01-04T19:01:32.122Z,12.00
2023-01-04T19:04:55.724Z,12.00
2023-01-04T19:08:20.805Z,12.00
2023-01-04T19:11:45.568Z,12.00
2023-01-04T19:15:10.776Z,12.00
2023-01-04T19:18:34.388Z,12.00
2023-01-04T19:21:57.965Z,12.00
2023-01-04T19:25:28.013Z,12.00
2023-01-04T19:28:52.530Z,12.00
2023-01-04T19:32:19.292Z,12.00
2023-01-04T19:35:43.567Z,12.00
2023-01-04T19:39:09.304Z,12.00
2023-01-04T19:42:34.615Z,12.00
2023-01-04T19:45:58.268Z,11.90
2023-01-04T19:49:21.835Z,11.90
2023-01-04T19:52:45.574Z,11.90
2023-01-04T19:56:10.449Z,11.90
2023-01-04T19:59:35.367Z,11.90
2023-01-04T20:02:59.207Z,11.80
2023-01-04T20:06:23.011Z,11.70
2023-01-04T20:09:48.605Z,11.70
2023-01-04T20:13:12.252Z,11.70
2023-01-04T20:16:37.242Z,11.70
2023-01-04T20:20:00.831Z,11.60
2023-01-04T20:23:24.937Z,11.60
2023-01-04T20:26:48.535Z,11.60
2023-01-04T20:30:12.731Z,11.70
2023-01-04T20:33:37.856Z,11.70
2023-01-04T20:37:01.482Z,11.60
2023-01-04T20:40:25.214Z,11.60
2023-01-04T20:43:49.729Z,11.60
2023-01-04T20:47:13.233Z,11.50
2023-01-04T20:50:38.139Z,11.40
2023-01-04T20:54:01.754Z,11.40
2023-01-04T20:57:26.125Z,11.30
2023-01-04T21:00:49.813Z,11.20
2023-01-04T21:04:15.758Z,11.20
2023-01-04T21:07:40.787Z,11.20
2023-01-04T21:11:04.900Z,11.20
2023-01-04T21:14:31.297Z,11.20
2023-01-04T21:17:54.985Z,11.20
2023-01-04T21:21:20.168Z,11.10
2023-01-04T21:24:45.157Z,11.10
2023-01-04T21:28:09.249Z,11.10
2023-01-04T21:31:33.186Z,11.10
2023-01-04T21:34:57.187Z,11.10
2023-01-04T21:38:20.837Z,11.10
2023-01-04T21:41:48.164Z,11.10
2023-01-04T21:45:12.328Z,11.00
2023-01-04T21:48:35.936Z,11.00
2023-01-04T21:51:59.739Z,11.00
2023-01-04T21:55:23.364Z,11.10
2023-01-04T21:58:48.397Z,11.10
2023-01-04T22:02:15.705Z,11.10
2023-01-04T22:05:40.608Z,11.10
2023-01-04T22:09:04.888Z,11.10
2023-01-04T22:12:28.594Z,11.10
2023-01-04T22:15:53.665Z,11.10
2023-01-04T22:19:18.540Z,11.10
2023-01-04T22:22:42.122Z,11.10
2023-01-04T22:26:06.104Z,11.00
2023-01-04T22:29:32.143Z,11.00
2023-01-04T22:32:57.359Z,11.00
2023-01-04T22:36:23.307Z,11.00
2023-01-04T22:39:47.602Z,11.00
2023-01-04T22:43:11.387Z,10.90
2023-01-04T22:46:36.416Z,10.80
2023-01-04T22:50:01.420Z,10.80
2023-01-04T22:53:24.999Z,10.80
2023-01-04T22:56:48.675Z,10.70
2023-01-04T23:00:13.982Z,10.70
2023-01-04T23:03:40.104Z,10.70
2023-01-04T23:07:05.157Z,10.70
2023-01-04T23:10:28.762Z,10.80
2023-01-04T23:13:52.989Z,10.80
2023-01-04T23:17:17.529Z,10.80
2023-01-04T23:20:41.092Z,10.90
2023-01-04T23:24:07.066Z,10.90
2023-01-04T23:27:30.671Z,10.90
2023-01-04T23:30:54.193Z,10.90
2023-01-04T23:34:17.758Z,10.90
2023-01-04T23:37:41.317Z,10.90
2023-01-04T23:41:06.601Z,11.00
2023-01-04T23:44:32.094Z,11.00
2023-01-04T23:47:55.668Z,11.00
2023-01-04T23:51:19.250Z,11.00
2023-01-04T23:54:42.895Z,11.00
2023-01-04T23:58:07.785Z,11.00
